LYPA weather

Pančevo Airfield
Pančevo, South Banat, Serbia

Public forecast

Using degrees Celsius for public forecast. Weather courtesy of forecast.io.

Closest aviation weather report (METAR) to Pančevo Airfield

Closest report is Belgrade Nikola Tesla Airport, 15.0 nm (27.7 km) WSW. Retrieved 2019/12/10 10:30 UTC (9 minutes ago):

LYBE 101030Z 30010KT 2000 -RA BR FEW004 BKN008 06/06 Q1014 NOSIG

Closest aviation forecast (TAF) to Pančevo Airfield

Closest forecast is Belgrade Nikola Tesla Airport, 15.0 nm (27.7 km) WSW. Retrieved 2019/12/10 06:24 UTC (4 hours ago):

TAF LYBE 100500Z 1006/1106 14008KT CAVOK TX06/1006Z TN01/1106Z BECMG 1006/1008 32012KT BKN013 BKN030 TEMPO 1008/1023 5000 RA BKN008 BKN027